sensor_id;sensor_type;location;lat;lon;timestamp;P1;durP1;ratioP1;P2;durP2;ratioP2
18455;SDS011;9357;49.900;8.208;2023-03-03T00:01:27;9.98;;;6.03;;
18455;SDS011;9357;49.900;8.208;2023-03-03T00:03:01;10.05;;;6.45;;
18455;SDS011;9357;49.900;8.208;2023-03-03T00:04:37;9.32;;;6.28;;
18455;SDS011;9357;49.900;8.208;2023-03-03T00:06:11;12.77;;;6.80;;
18455;SDS011;9357;49.900;8.208;2023-03-03T00:07:45;12.15;;;6.40;;
18455;SDS011;9357;49.900;8.208;2023-03-03T00:09:17;10.55;;;6.35;;
18455;SDS011;9357;49.900;8.208;2023-03-03T00:10:50;12.32;;;6.40;;
18455;SDS011;9357;49.900;8.208;2023-03-03T00:12:26;9.75;;;6.07;;
18455;SDS011;9357;49.900;8.208;2023-03-03T00:14:00;11.10;;;6.38;;
18455;SDS011;9357;49.900;8.208;2023-03-03T00:15:33;10.88;;;7.18;;
18455;SDS011;9357;49.900;8.208;2023-03-03T00:17:11;9.40;;;6.45;;
18455;SDS011;9357;49.900;8.208;2023-03-03T00:18:54;10.88;;;6.43;;
18455;SDS011;9357;49.900;8.208;2023-03-03T00:20:33;11.55;;;6.50;;
18455;SDS011;9357;49.900;8.208;2023-03-03T00:22:06;10.70;;;6.65;;
18455;SDS011;9357;49.900;8.208;2023-03-03T00:23:47;10.25;;;6.60;;
18455;SDS011;9357;49.900;8.208;2023-03-03T00:25:24;10.73;;;7.25;;
18455;SDS011;9357;49.900;8.208;2023-03-03T00:27:00;10.07;;;7.25;;
18455;SDS011;9357;49.900;8.208;2023-03-03T00:28:47;10.63;;;7.43;;
18455;SDS011;9357;49.900;8.208;2023-03-03T00:30:22;13.25;;;7.93;;
18455;SDS011;9357;49.900;8.208;2023-03-03T00:31:58;15.18;;;8.40;;
18455;SDS011;9357;49.900;8.208;2023-03-03T00:33:49;16.10;;;8.90;;
18455;SDS011;9357;49.900;8.208;2023-03-03T00:35:25;13.43;;;8.52;;
18455;SDS011;9357;49.900;8.208;2023-03-03T00:37:01;14.07;;;8.85;;
18455;SDS011;9357;49.900;8.208;2023-03-03T00:38:34;12.73;;;8.80;;
18455;SDS011;9357;49.900;8.208;2023-03-03T00:40:21;15.05;;;8.80;;
18455;SDS011;9357;49.900;8.208;2023-03-03T00:41:55;13.00;;;8.52;;
18455;SDS011;9357;49.900;8.208;2023-03-03T00:43:32;13.73;;;8.13;;
18455;SDS011;9357;49.900;8.208;2023-03-03T00:45:15;15.10;;;8.40;;
18455;SDS011;9357;49.900;8.208;2023-03-03T00:49:02;14.38;;;8.65;;
18455;SDS011;9357;49.900;8.208;2023-03-03T00:50:51;15.45;;;8.07;;
18455;SDS011;9357;49.900;8.208;2023-03-03T00:52:27;14.73;;;8.93;;
18455;SDS011;9357;49.900;8.208;2023-03-03T00:53:59;12.10;;;7.97;;
18455;SDS011;9357;49.900;8.208;2023-03-03T00:55:33;11.50;;;8.02;;
18455;SDS011;9357;49.900;8.208;2023-03-03T00:57:05;10.07;;;7.38;;
18455;SDS011;9357;49.900;8.208;2023-03-03T00:58:37;13.15;;;8.30;;
18455;SDS011;9357;49.900;8.208;2023-03-03T01:00:11;13.15;;;8.27;;
18455;SDS011;9357;49.900;8.208;2023-03-03T01:01:43;13.80;;;8.45;;
18455;SDS011;9357;49.900;8.208;2023-03-03T01:03:16;12.75;;;8.05;;
18455;SDS011;9357;49.900;8.208;2023-03-03T01:04:51;12.30;;;7.93;;
18455;SDS011;9357;49.900;8.208;2023-03-03T01:06:26;12.05;;;7.57;;
18455;SDS011;9357;49.900;8.208;2023-03-03T01:08:00;15.95;;;8.52;;
18455;SDS011;9357;49.900;8.208;2023-03-03T01:09:34;13.38;;;7.88;;
18455;SDS011;9357;49.900;8.208;2023-03-03T01:11:06;14.15;;;8.48;;
18455;SDS011;9357;49.900;8.208;2023-03-03T01:12:43;14.35;;;8.52;;
18455;SDS011;9357;49.900;8.208;2023-03-03T01:14:16;15.13;;;8.43;;
18455;SDS011;9357;49.900;8.208;2023-03-03T01:15:49;14.13;;;8.63;;
18455;SDS011;9357;49.900;8.208;2023-03-03T01:17:22;15.07;;;8.50;;
18455;SDS011;9357;49.900;8.208;2023-03-03T01:18:54;14.05;;;9.15;;
18455;SDS011;9357;49.900;8.208;2023-03-03T01:20:27;14.38;;;8.68;;
18455;SDS011;9357;49.900;8.208;2023-03-03T01:22:00;13.48;;;9.00;;
18455;SDS011;9357;49.900;8.208;2023-03-03T01:23:34;14.25;;;8.73;;
18455;SDS011;9357;49.900;8.208;2023-03-03T01:25:07;14.15;;;8.18;;
18455;SDS011;9357;49.900;8.208;2023-03-03T01:26:41;13.15;;;8.13;;
18455;SDS011;9357;49.900;8.208;2023-03-03T01:28:13;13.20;;;9.30;;
18455;SDS011;9357;49.900;8.208;2023-03-03T01:29:46;12.15;;;8.50;;
18455;SDS011;9357;49.900;8.208;2023-03-03T01:31:18;13.05;;;8.40;;
18455;SDS011;9357;49.900;8.208;2023-03-03T01:32:51;14.10;;;8.77;;
18455;SDS011;9357;49.900;8.208;2023-03-03T01:34:24;14.77;;;9.55;;
18455;SDS011;9357;49.900;8.208;2023-03-03T01:35:56;16.52;;;10.13;;
18455;SDS011;9357;49.900;8.208;2023-03-03T01:37:28;15.20;;;9.80;;
18455;SDS011;9357;49.900;8.208;2023-03-03T01:39:03;16.02;;;9.57;;
18455;SDS011;9357;49.900;8.208;2023-03-03T01:40:35;17.15;;;10.02;;
18455;SDS011;9357;49.900;8.208;2023-03-03T01:42:09;16.13;;;9.85;;
18455;SDS011;9357;49.900;8.208;2023-03-03T01:43:42;17.33;;;10.57;;
18455;SDS011;9357;49.900;8.208;2023-03-03T01:45:20;14.93;;;10.18;;
18455;SDS011;9357;49.900;8.208;2023-03-03T01:46:54;16.23;;;10.00;;
18455;SDS011;9357;49.900;8.208;2023-03-03T01:48:31;17.42;;;10.93;;
18455;SDS011;9357;49.900;8.208;2023-03-03T01:50:09;15.63;;;10.18;;
18455;SDS011;9357;49.900;8.208;2023-03-03T01:51:47;13.82;;;9.43;;
18455;SDS011;9357;49.900;8.208;2023-03-03T01:53:26;15.70;;;9.23;;
18455;SDS011;9357;49.900;8.208;2023-03-03T01:55:06;14.95;;;9.75;;
18455;SDS011;9357;49.900;8.208;2023-03-03T01:56:43;17.15;;;9.93;;
18455;SDS011;9357;49.900;8.208;2023-03-03T01:58:16;16.35;;;10.80;;
18455;SDS011;9357;49.900;8.208;2023-03-03T01:59:52;17.50;;;11.02;;
18455;SDS011;9357;49.900;8.208;2023-03-03T02:01:26;16.67;;;10.82;;
18455;SDS011;9357;49.900;8.208;2023-03-03T02:03:01;18.33;;;10.68;;
18455;SDS011;9357;49.900;8.208;2023-03-03T02:04:34;19.85;;;10.32;;
18455;SDS011;9357;49.900;8.208;2023-03-03T02:06:08;15.88;;;10.27;;
18455;SDS011;9357;49.900;8.208;2023-03-03T02:07:45;16.80;;;9.57;;
18455;SDS011;9357;49.900;8.208;2023-03-03T02:09:20;17.52;;;10.25;;
18455;SDS011;9357;49.900;8.208;2023-03-03T02:10:58;15.73;;;9.52;;
18455;SDS011;9357;49.900;8.208;2023-03-03T02:12:32;17.55;;;10.45;;
18455;SDS011;9357;49.900;8.208;2023-03-03T02:14:09;15.15;;;9.88;;
18455;SDS011;9357;49.900;8.208;2023-03-03T02:15:42;14.38;;;10.02;;
18455;SDS011;9357;49.900;8.208;2023-03-03T02:17:15;16.35;;;10.27;;
18455;SDS011;9357;49.900;8.208;2023-03-03T02:18:47;14.15;;;9.95;;
18455;SDS011;9357;49.900;8.208;2023-03-03T02:22:16;17.08;;;10.52;;
18455;SDS011;9357;49.900;8.208;2023-03-03T02:23:54;18.52;;;11.05;;
18455;SDS011;9357;49.900;8.208;2023-03-03T02:25:32;18.63;;;12.18;;
18455;SDS011;9357;49.900;8.208;2023-03-03T02:27:13;18.77;;;11.75;;
18455;SDS011;9357;49.900;8.208;2023-03-03T02:28:45;19.13;;;11.82;;
18455;SDS011;9357;49.900;8.208;2023-03-03T02:30:20;19.75;;;12.02;;
18455;SDS011;9357;49.900;8.208;2023-03-03T02:31:54;16.88;;;11.00;;
18455;SDS011;9357;49.900;8.208;2023-03-03T02:33:27;16.65;;;11.05;;
18455;SDS011;9357;49.900;8.208;2023-03-03T02:35:00;16.08;;;11.02;;
18455;SDS011;9357;49.900;8.208;2023-03-03T02:36:33;19.75;;;11.57;;
18455;SDS011;9357;49.900;8.208;2023-03-03T02:38:09;21.38;;;12.38;;
18455;SDS011;9357;49.900;8.208;2023-03-03T02:39:47;20.08;;;13.35;;
18455;SDS011;9357;49.900;8.208;2023-03-03T02:41:25;20.55;;;12.30;;
18455;SDS011;9357;49.900;8.208;2023-03-03T02:43:04;21.77;;;13.02;;
18455;SDS011;9357;49.900;8.208;2023-03-03T02:44:38;21.77;;;13.63;;
18455;SDS011;9357;49.900;8.208;2023-03-03T02:46:10;21.10;;;13.15;;
18455;SDS011;9357;49.900;8.208;2023-03-03T02:47:47;22.20;;;12.90;;
18455;SDS011;9357;49.900;8.208;2023-03-03T02:49:20;19.15;;;12.80;;
18455;SDS011;9357;49.900;8.208;2023-03-03T02:50:55;20.20;;;11.65;;
18455;SDS011;9357;49.900;8.208;2023-03-03T02:52:26;20.15;;;12.90;;
18455;SDS011;9357;49.900;8.208;2023-03-03T02:53:59;18.27;;;11.65;;
18455;SDS011;9357;49.900;8.208;2023-03-03T02:55:32;15.75;;;11.10;;
18455;SDS011;9357;49.900;8.208;2023-03-03T02:57:05;22.15;;;12.18;;
18455;SDS011;9357;49.900;8.208;2023-03-03T02:58:40;17.42;;;11.45;;
18455;SDS011;9357;49.900;8.208;2023-03-03T03:00:12;17.17;;;11.40;;
18455;SDS011;9357;49.900;8.208;2023-03-03T03:01:46;20.10;;;12.90;;
18455;SDS011;9357;49.900;8.208;2023-03-03T03:03:19;23.17;;;14.63;;
18455;SDS011;9357;49.900;8.208;2023-03-03T03:04:51;24.95;;;14.75;;
18455;SDS011;9357;49.900;8.208;2023-03-03T03:06:24;22.88;;;13.48;;
18455;SDS011;9357;49.900;8.208;2023-03-03T03:07:56;22.08;;;13.38;;
18455;SDS011;9357;49.900;8.208;2023-03-03T03:09:29;20.17;;;12.00;;
18455;SDS011;9357;49.900;8.208;2023-03-03T03:11:02;17.55;;;11.93;;
18455;SDS011;9357;49.900;8.208;2023-03-03T03:12:36;20.98;;;12.20;;
18455;SDS011;9357;49.900;8.208;2023-03-03T03:14:10;19.90;;;11.98;;
18455;SDS011;9357;49.900;8.208;2023-03-03T03:15:44;18.50;;;12.55;;
18455;SDS011;9357;49.900;8.208;2023-03-03T03:17:16;19.17;;;12.32;;
18455;SDS011;9357;49.900;8.208;2023-03-03T03:18:49;20.35;;;12.88;;
18455;SDS011;9357;49.900;8.208;2023-03-03T03:20:22;22.70;;;13.93;;
18455;SDS011;9357;49.900;8.208;2023-03-03T03:21:55;19.33;;;12.90;;
18455;SDS011;9357;49.900;8.208;2023-03-03T03:23:28;20.35;;;12.95;;
18455;SDS011;9357;49.900;8.208;2023-03-03T03:25:00;22.08;;;13.23;;
18455;SDS011;9357;49.900;8.208;2023-03-03T03:26:33;22.50;;;13.20;;
18455;SDS011;9357;49.900;8.208;2023-03-03T03:28:06;20.00;;;12.70;;
18455;SDS011;9357;49.900;8.208;2023-03-03T03:29:39;22.73;;;12.60;;
18455;SDS011;9357;49.900;8.208;2023-03-03T03:31:12;20.80;;;13.13;;
18455;SDS011;9357;49.900;8.208;2023-03-03T03:32:45;20.33;;;13.00;;
18455;SDS011;9357;49.900;8.208;2023-03-03T03:34:17;23.02;;;13.68;;
18455;SDS011;9357;49.900;8.208;2023-03-03T03:35:50;21.25;;;13.40;;
18455;SDS011;9357;49.900;8.208;2023-03-03T03:37:22;21.90;;;12.35;;
18455;SDS011;9357;49.900;8.208;2023-03-03T03:38:55;20.55;;;12.93;;
18455;SDS011;9357;49.900;8.208;2023-03-03T03:40:28;24.08;;;12.48;;
18455;SDS011;9357;49.900;8.208;2023-03-03T03:42:01;21.98;;;11.73;;
18455;SDS011;9357;49.900;8.208;2023-03-03T03:43:34;18.98;;;11.77;;
18455;SDS011;9357;49.900;8.208;2023-03-03T03:45:07;17.17;;;11.68;;
18455;SDS011;9357;49.900;8.208;2023-03-03T03:46:45;19.50;;;11.30;;
18455;SDS011;9357;49.900;8.208;2023-03-03T03:48:18;19.48;;;11.45;;
18455;SDS011;9357;49.900;8.208;2023-03-03T03:49:50;19.08;;;11.13;;
18455;SDS011;9357;49.900;8.208;2023-03-03T03:51:22;16.65;;;10.43;;
18455;SDS011;9357;49.900;8.208;2023-03-03T03:52:55;18.85;;;11.48;;
18455;SDS011;9357;49.900;8.208;2023-03-03T03:54:28;19.42;;;11.90;;
18455;SDS011;9357;49.900;8.208;2023-03-03T03:56:01;17.85;;;11.35;;
18455;SDS011;9357;49.900;8.208;2023-03-03T03:57:33;21.38;;;12.10;;
18455;SDS011;9357;49.900;8.208;2023-03-03T03:59:05;21.10;;;12.38;;
18455;SDS011;9357;49.900;8.208;2023-03-03T04:00:40;22.35;;;12.43;;
18455;SDS011;9357;49.900;8.208;2023-03-03T04:02:12;19.67;;;12.35;;
18455;SDS011;9357;49.900;8.208;2023-03-03T04:03:45;19.50;;;12.18;;
18455;SDS011;9357;49.900;8.208;2023-03-03T04:05:19;19.48;;;12.50;;
18455;SDS011;9357;49.900;8.208;2023-03-03T04:06:52;18.77;;;11.73;;
18455;SDS011;9357;49.900;8.208;2023-03-03T04:08:24;19.90;;;12.23;;
18455;SDS011;9357;49.900;8.208;2023-03-03T04:09:56;20.27;;;12.60;;
18455;SDS011;9357;49.900;8.208;2023-03-03T04:11:29;19.27;;;12.07;;
18455;SDS011;9357;49.900;8.208;2023-03-03T04:13:01;19.83;;;11.55;;
18455;SDS011;9357;49.900;8.208;2023-03-03T04:14:34;19.02;;;12.10;;
18455;SDS011;9357;49.900;8.208;2023-03-03T04:16:08;17.20;;;11.48;;
18455;SDS011;9357;49.900;8.208;2023-03-03T04:17:41;20.70;;;11.82;;
18455;SDS011;9357;49.900;8.208;2023-03-03T04:19:13;19.83;;;12.07;;
18455;SDS011;9357;49.900;8.208;2023-03-03T04:20:45;17.42;;;11.18;;
18455;SDS011;9357;49.900;8.208;2023-03-03T04:22:19;18.13;;;11.90;;
18455;SDS011;9357;49.900;8.208;2023-03-03T04:23:51;19.65;;;11.98;;
18455;SDS011;9357;49.900;8.208;2023-03-03T04:25:23;21.00;;;11.77;;
18455;SDS011;9357;49.900;8.208;2023-03-03T04:26:56;20.00;;;12.10;;
18455;SDS011;9357;49.900;8.208;2023-03-03T04:28:29;23.92;;;12.52;;
18455;SDS011;9357;49.900;8.208;2023-03-03T04:30:02;21.38;;;12.77;;
18455;SDS011;9357;49.900;8.208;2023-03-03T04:31:37;19.77;;;11.93;;
18455;SDS011;9357;49.900;8.208;2023-03-03T04:33:10;19.98;;;11.77;;
18455;SDS011;9357;49.900;8.208;2023-03-03T04:34:43;18.42;;;11.20;;
18455;SDS011;9357;49.900;8.208;2023-03-03T04:36:21;17.65;;;10.98;;
18455;SDS011;9357;49.900;8.208;2023-03-03T04:37:54;17.60;;;11.35;;
18455;SDS011;9357;49.900;8.208;2023-03-03T04:39:26;19.13;;;11.13;;
18455;SDS011;9357;49.900;8.208;2023-03-03T04:40:58;19.13;;;11.18;;
18455;SDS011;9357;49.900;8.208;2023-03-03T04:42:31;16.83;;;10.43;;
18455;SDS011;9357;49.900;8.208;2023-03-03T04:44:04;19.08;;;11.80;;
18455;SDS011;9357;49.900;8.208;2023-03-03T04:45:37;15.05;;;9.75;;
18455;SDS011;9357;49.900;8.208;2023-03-03T04:47:10;15.88;;;10.48;;
18455;SDS011;9357;49.900;8.208;2023-03-03T04:48:43;17.92;;;10.27;;
18455;SDS011;9357;49.900;8.208;2023-03-03T04:50:15;19.08;;;10.95;;
18455;SDS011;9357;49.900;8.208;2023-03-03T04:51:47;17.45;;;10.82;;
18455;SDS011;9357;49.900;8.208;2023-03-03T04:53:20;19.27;;;10.80;;
18455;SDS011;9357;49.900;8.208;2023-03-03T04:54:53;20.90;;;11.40;;
18455;SDS011;9357;49.900;8.208;2023-03-03T04:56:25;20.25;;;11.27;;
18455;SDS011;9357;49.900;8.208;2023-03-03T04:57:58;14.27;;;9.07;;
18455;SDS011;9357;49.900;8.208;2023-03-03T04:59:31;20.23;;;10.68;;
18455;SDS011;9357;49.900;8.208;2023-03-03T05:01:04;14.65;;;9.93;;
18455;SDS011;9357;49.900;8.208;2023-03-03T05:02:38;15.70;;;9.75;;
18455;SDS011;9357;49.900;8.208;2023-03-03T05:04:11;16.15;;;9.95;;
18455;SDS011;9357;49.900;8.208;2023-03-03T05:05:44;19.80;;;11.00;;
18455;SDS011;9357;49.900;8.208;2023-03-03T05:07:18;16.88;;;10.02;;
18455;SDS011;9357;49.900;8.208;2023-03-03T05:08:50;17.10;;;10.40;;
18455;SDS011;9357;49.900;8.208;2023-03-03T05:10:23;17.27;;;10.77;;
18455;SDS011;9357;49.900;8.208;2023-03-03T05:11:56;15.57;;;9.98;;
18455;SDS011;9357;49.900;8.208;2023-03-03T05:13:28;16.35;;;9.95;;
18455;SDS011;9357;49.900;8.208;2023-03-03T05:15:01;18.15;;;10.73;;
18455;SDS011;9357;49.900;8.208;2023-03-03T05:16:34;16.33;;;10.80;;
18455;SDS011;9357;49.900;8.208;2023-03-03T05:18:08;17.83;;;10.52;;
18455;SDS011;9357;49.900;8.208;2023-03-03T05:19:42;21.65;;;12.38;;
18455;SDS011;9357;49.900;8.208;2023-03-03T05:21:15;21.13;;;12.00;;
18455;SDS011;9357;49.900;8.208;2023-03-03T05:22:47;21.23;;;12.52;;
18455;SDS011;9357;49.900;8.208;2023-03-03T05:24:20;21.95;;;12.82;;
18455;SDS011;9357;49.900;8.208;2023-03-03T05:25:53;21.75;;;13.30;;
18455;SDS011;9357;49.900;8.208;2023-03-03T05:27:26;22.20;;;13.00;;
18455;SDS011;9357;49.900;8.208;2023-03-03T05:28:59;20.63;;;12.27;;
18455;SDS011;9357;49.900;8.208;2023-03-03T05:30:32;21.75;;;12.80;;
18455;SDS011;9357;49.900;8.208;2023-03-03T05:32:05;22.73;;;14.63;;
18455;SDS011;9357;49.900;8.208;2023-03-03T05:33:39;24.45;;;14.88;;
18455;SDS011;9357;49.900;8.208;2023-03-03T05:35:12;24.38;;;16.02;;
18455;SDS011;9357;49.900;8.208;2023-03-03T05:36:44;23.63;;;15.80;;
18455;SDS011;9357;49.900;8.208;2023-03-03T05:38:17;26.73;;;17.30;;
18455;SDS011;9357;49.900;8.208;2023-03-03T05:39:50;27.40;;;18.25;;
18455;SDS011;9357;49.900;8.208;2023-03-03T05:41:23;30.13;;;18.15;;
18455;SDS011;9357;49.900;8.208;2023-03-03T05:42:55;28.98;;;16.75;;
18455;SDS011;9357;49.900;8.208;2023-03-03T05:44:28;26.63;;;16.40;;
18455;SDS011;9357;49.900;8.208;2023-03-03T05:46:01;26.95;;;16.95;;
18455;SDS011;9357;49.900;8.208;2023-03-03T05:47:34;28.80;;;17.67;;
18455;SDS011;9357;49.900;8.208;2023-03-03T05:49:07;28.00;;;17.55;;
18455;SDS011;9357;49.900;8.208;2023-03-03T05:50:40;30.48;;;17.73;;
18455;SDS011;9357;49.900;8.208;2023-03-03T05:52:13;29.05;;;18.42;;
18455;SDS011;9357;49.900;8.208;2023-03-03T05:53:45;28.35;;;16.83;;
18455;SDS011;9357;49.900;8.208;2023-03-03T05:55:18;24.95;;;15.82;;
18455;SDS011;9357;49.900;8.208;2023-03-03T05:56:51;27.05;;;16.77;;
18455;SDS011;9357;49.900;8.208;2023-03-03T05:58:24;26.92;;;16.85;;
18455;SDS011;9357;49.900;8.208;2023-03-03T05:59:57;28.33;;;17.10;;
18455;SDS011;9357;49.900;8.208;2023-03-03T06:01:30;24.92;;;16.75;;
18455;SDS011;9357;49.900;8.208;2023-03-03T06:03:02;27.75;;;17.42;;
18455;SDS011;9357;49.900;8.208;2023-03-03T06:04:37;30.52;;;18.17;;
18455;SDS011;9357;49.900;8.208;2023-03-03T06:06:10;32.40;;;18.75;;
18455;SDS011;9357;49.900;8.208;2023-03-03T06:07:44;29.27;;;18.00;;
18455;SDS011;9357;49.900;8.208;2023-03-03T06:09:17;30.50;;;18.35;;
18455;SDS011;9357;49.900;8.208;2023-03-03T06:10:50;30.23;;;17.17;;
18455;SDS011;9357;49.900;8.208;2023-03-03T06:12:23;31.70;;;19.33;;
18455;SDS011;9357;49.900;8.208;2023-03-03T06:13:56;32.10;;;18.40;;
18455;SDS011;9357;49.900;8.208;2023-03-03T06:15:28;32.15;;;18.30;;
18455;SDS011;9357;49.900;8.208;2023-03-03T06:17:01;35.20;;;19.67;;
18455;SDS011;9357;49.900;8.208;2023-03-03T06:18:34;35.70;;;19.90;;
18455;SDS011;9357;49.900;8.208;2023-03-03T06:20:09;36.30;;;19.70;;
18455;SDS011;9357;49.900;8.208;2023-03-03T06:21:42;35.35;;;20.27;;
18455;SDS011;9357;49.900;8.208;2023-03-03T06:23:15;34.45;;;20.35;;
18455;SDS011;9357;49.900;8.208;2023-03-03T06:24:48;27.60;;;16.60;;
18455;SDS011;9357;49.900;8.208;2023-03-03T06:26:22;29.38;;;17.02;;
18455;SDS011;9357;49.900;8.208;2023-03-03T06:27:55;26.25;;;16.52;;
18455;SDS011;9357;49.900;8.208;2023-03-03T06:29:28;29.65;;;15.98;;
18455;SDS011;9357;49.900;8.208;2023-03-03T06:31:00;24.10;;;14.85;;
18455;SDS011;9357;49.900;8.208;2023-03-03T06:32:33;24.23;;;14.07;;
18455;SDS011;9357;49.900;8.208;2023-03-03T06:34:05;29.88;;;17.23;;
18455;SDS011;9357;49.900;8.208;2023-03-03T06:35:39;38.88;;;21.70;;
18455;SDS011;9357;49.900;8.208;2023-03-03T06:37:12;43.30;;;23.63;;
18455;SDS011;9357;49.900;8.208;2023-03-03T06:38:45;47.03;;;25.08;;
18455;SDS011;9357;49.900;8.208;2023-03-03T06:40:18;46.00;;;25.25;;
18455;SDS011;9357;49.900;8.208;2023-03-03T06:41:51;43.97;;;23.88;;
18455;SDS011;9357;49.900;8.208;2023-03-03T06:43:23;49.33;;;24.98;;
18455;SDS011;9357;49.900;8.208;2023-03-03T06:44:56;51.88;;;25.52;;
18455;SDS011;9357;49.900;8.208;2023-03-03T06:46:29;48.63;;;25.63;;
18455;SDS011;9357;49.900;8.208;2023-03-03T06:48:01;49.45;;;26.42;;
18455;SDS011;9357;49.900;8.208;2023-03-03T06:49:34;50.70;;;26.38;;
18455;SDS011;9357;49.900;8.208;2023-03-03T06:51:13;46.88;;;25.17;;
18455;SDS011;9357;49.900;8.208;2023-03-03T06:52:56;48.42;;;25.98;;
18455;SDS011;9357;49.900;8.208;2023-03-03T06:54:33;52.38;;;27.00;;
18455;SDS011;9357;49.900;8.208;2023-03-03T06:56:07;53.47;;;26.98;;
18455;SDS011;9357;49.900;8.208;2023-03-03T06:57:40;52.97;;;28.08;;
18455;SDS011;9357;49.900;8.208;2023-03-03T06:59:14;53.03;;;27.77;;
18455;SDS011;9357;49.900;8.208;2023-03-03T07:00:49;55.38;;;30.13;;
18455;SDS011;9357;49.900;8.208;2023-03-03T07:02:25;59.05;;;30.00;;
18455;SDS011;9357;49.900;8.208;2023-03-03T07:03:58;53.72;;;27.25;;
18455;SDS011;9357;49.900;8.208;2023-03-03T07:05:31;51.05;;;26.88;;
18455;SDS011;9357;49.900;8.208;2023-03-03T07:07:07;52.50;;;29.20;;
18455;SDS011;9357;49.900;8.208;2023-03-03T07:08:46;54.05;;;27.98;;
18455;SDS011;9357;49.900;8.208;2023-03-03T07:10:21;55.42;;;29.13;;
18455;SDS011;9357;49.900;8.208;2023-03-03T07:11:56;57.13;;;29.50;;
18455;SDS011;9357;49.900;8.208;2023-03-03T07:13:33;56.88;;;29.02;;
18455;SDS011;9357;49.900;8.208;2023-03-03T07:15:13;62.38;;;29.00;;
18455;SDS011;9357;49.900;8.208;2023-03-03T07:16:50;58.42;;;29.08;;
18455;SDS011;9357;49.900;8.208;2023-03-03T07:18:30;56.85;;;29.48;;
18455;SDS011;9357;49.900;8.208;2023-03-03T07:20:10;57.13;;;28.10;;
18455;SDS011;9357;49.900;8.208;2023-03-03T07:21:49;57.45;;;29.35;;
18455;SDS011;9357;49.900;8.208;2023-03-03T07:23:25;61.42;;;31.42;;
18455;SDS011;9357;49.900;8.208;2023-03-03T07:25:01;63.00;;;30.58;;
18455;SDS011;9357;49.900;8.208;2023-03-03T07:26:49;62.03;;;30.77;;
18455;SDS011;9357;49.900;8.208;2023-03-03T07:28:23;60.35;;;30.63;;
18455;SDS011;9357;49.900;8.208;2023-03-03T07:30:00;61.35;;;31.30;;
18455;SDS011;9357;49.900;8.208;2023-03-03T07:31:48;56.13;;;29.70;;
18455;SDS011;9357;49.900;8.208;2023-03-03T07:33:23;61.40;;;30.27;;
18455;SDS011;9357;49.900;8.208;2023-03-03T07:34:57;57.83;;;29.63;;
18455;SDS011;9357;49.900;8.208;2023-03-03T07:36:30;52.50;;;27.40;;
18455;SDS011;9357;49.900;8.208;2023-03-03T07:38:16;54.50;;;27.98;;
18455;SDS011;9357;49.900;8.208;2023-03-03T07:39:55;54.53;;;28.10;;
18455;SDS011;9357;49.900;8.208;2023-03-03T07:41:29;51.28;;;26.98;;
18455;SDS011;9357;49.900;8.208;2023-03-03T07:43:15;53.33;;;28.08;;
18455;SDS011;9357;49.900;8.208;2023-03-03T07:45:00;50.20;;;26.23;;
18455;SDS011;9357;49.900;8.208;2023-03-03T07:46:35;51.50;;;27.83;;
18455;SDS011;9357;49.900;8.208;2023-03-03T07:48:15;45.90;;;25.73;;
18455;SDS011;9357;49.900;8.208;2023-03-03T07:49:55;46.40;;;25.27;;
18455;SDS011;9357;49.900;8.208;2023-03-03T07:51:35;49.60;;;26.60;;
18455;SDS011;9357;49.900;8.208;2023-03-03T07:53:13;51.10;;;27.70;;
18455;SDS011;9357;49.900;8.208;2023-03-03T07:54:56;49.50;;;26.85;;
18455;SDS011;9357;49.900;8.208;2023-03-03T07:56:33;52.22;;;27.85;;
18455;SDS011;9357;49.900;8.208;2023-03-03T07:58:14;50.90;;;27.45;;
18455;SDS011;9357;49.900;8.208;2023-03-03T07:59:53;48.15;;;26.63;;
18455;SDS011;9357;49.900;8.208;2023-03-03T08:01:38;47.13;;;26.98;;
18455;SDS011;9357;49.900;8.208;2023-03-03T08:03:13;46.22;;;25.90;;
18455;SDS011;9357;49.900;8.208;2023-03-03T08:04:48;48.78;;;26.70;;
18455;SDS011;9357;49.900;8.208;2023-03-03T08:06:26;45.50;;;26.85;;
18455;SDS011;9357;49.900;8.208;2023-03-03T08:08:12;49.42;;;26.92;;
18455;SDS011;9357;49.900;8.208;2023-03-03T08:09:56;45.92;;;26.15;;
18455;SDS011;9357;49.900;8.208;2023-03-03T08:11:30;45.05;;;26.02;;
18455;SDS011;9357;49.900;8.208;2023-03-03T08:13:08;47.60;;;27.17;;
18455;SDS011;9357;49.900;8.208;2023-03-03T08:14:48;46.38;;;26.88;;
18455;SDS011;9357;49.900;8.208;2023-03-03T08:16:34;47.42;;;26.63;;
18455;SDS011;9357;49.900;8.208;2023-03-03T08:18:13;43.78;;;25.73;;
18455;SDS011;9357;49.900;8.208;2023-03-03T08:19:52;44.67;;;26.30;;
18455;SDS011;9357;49.900;8.208;2023-03-03T08:21:27;43.42;;;25.52;;
18455;SDS011;9357;49.900;8.208;2023-03-03T08:23:02;43.58;;;26.42;;
18455;SDS011;9357;49.900;8.208;2023-03-03T08:24:34;45.22;;;26.60;;
18455;SDS011;9357;49.900;8.208;2023-03-03T08:26:10;45.38;;;26.52;;
18455;SDS011;9357;49.900;8.208;2023-03-03T08:27:44;43.53;;;25.25;;
18455;SDS011;9357;49.900;8.208;2023-03-03T08:29:16;45.35;;;26.67;;
18455;SDS011;9357;49.900;8.208;2023-03-03T08:30:49;45.25;;;26.00;;
18455;SDS011;9357;49.900;8.208;2023-03-03T08:32:39;47.38;;;27.02;;
18455;SDS011;9357;49.900;8.208;2023-03-03T08:34:12;48.80;;;27.35;;
18455;SDS011;9357;49.900;8.208;2023-03-03T08:35:44;44.33;;;26.75;;
18455;SDS011;9357;49.900;8.208;2023-03-03T08:37:18;48.80;;;27.98;;
18455;SDS011;9357;49.900;8.208;2023-03-03T08:38:51;46.80;;;27.05;;
18455;SDS011;9357;49.900;8.208;2023-03-03T08:40:23;43.85;;;26.95;;
18455;SDS011;9357;49.900;8.208;2023-03-03T08:41:57;42.95;;;25.88;;
18455;SDS011;9357;49.900;8.208;2023-03-03T08:43:30;44.58;;;25.83;;
18455;SDS011;9357;49.900;8.208;2023-03-03T08:45:03;42.40;;;26.60;;
18455;SDS011;9357;49.900;8.208;2023-03-03T08:46:36;41.97;;;25.10;;
18455;SDS011;9357;49.900;8.208;2023-03-03T08:48:09;41.72;;;26.00;;
18455;SDS011;9357;49.900;8.208;2023-03-03T08:49:42;47.80;;;26.83;;
18455;SDS011;9357;49.900;8.208;2023-03-03T08:51:15;41.95;;;25.83;;
18455;SDS011;9357;49.900;8.208;2023-03-03T08:52:48;42.90;;;26.00;;
18455;SDS011;9357;49.900;8.208;2023-03-03T08:54:21;42.17;;;26.52;;
18455;SDS011;9357;49.900;8.208;2023-03-03T08:55:54;41.58;;;25.10;;
18455;SDS011;9357;49.900;8.208;2023-03-03T08:57:28;43.72;;;27.63;;
18455;SDS011;9357;49.900;8.208;2023-03-03T08:59:01;40.55;;;24.50;;
18455;SDS011;9357;49.900;8.208;2023-03-03T09:00:34;38.28;;;24.52;;
18455;SDS011;9357;49.900;8.208;2023-03-03T09:02:08;41.28;;;25.42;;
18455;SDS011;9357;49.900;8.208;2023-03-03T09:03:41;42.47;;;25.27;;
18455;SDS011;9357;49.900;8.208;2023-03-03T09:05:14;37.58;;;24.30;;
18455;SDS011;9357;49.900;8.208;2023-03-03T09:06:47;41.78;;;24.73;;
18455;SDS011;9357;49.900;8.208;2023-03-03T09:08:20;48.70;;;28.23;;
18455;SDS011;9357;49.900;8.208;2023-03-03T09:09:52;41.20;;;24.92;;
18455;SDS011;9357;49.900;8.208;2023-03-03T09:11:26;37.75;;;23.95;;
18455;SDS011;9357;49.900;8.208;2023-03-03T09:13:05;39.88;;;23.73;;
18455;SDS011;9357;49.900;8.208;2023-03-03T09:14:41;39.63;;;24.83;;
18455;SDS011;9357;49.900;8.208;2023-03-03T09:16:15;38.80;;;24.13;;
18455;SDS011;9357;49.900;8.208;2023-03-03T09:17:48;40.10;;;24.10;;
18455;SDS011;9357;49.900;8.208;2023-03-03T09:19:22;41.70;;;24.48;;
18455;SDS011;9357;49.900;8.208;2023-03-03T09:20:57;40.92;;;25.10;;
18455;SDS011;9357;49.900;8.208;2023-03-03T09:22:31;39.60;;;24.35;;
18455;SDS011;9357;49.900;8.208;2023-03-03T09:24:10;42.67;;;26.35;;
18455;SDS011;9357;49.900;8.208;2023-03-03T09:25:54;38.00;;;24.77;;
18455;SDS011;9357;49.900;8.208;2023-03-03T09:27:27;41.53;;;25.95;;
18455;SDS011;9357;49.900;8.208;2023-03-03T09:29:17;40.92;;;24.83;;